Time;durP1;ratioP1;P1;durP2;ratioP2;P2;SDS_P1;SDS_P2;PMS_P1;PMS_P2;Temp;Humidity;BMP_temperature;BMP_pressure;BME280_temperature;BME280_humidity;BME280_pressure;Samples;Min_cycle;Max_cycle;Signal;HPM_P1;HPM_P2
2021/04/09 00:01:31;;;;;;;;;;;8.90;59.70;;;;;;5029262;28;19919;-58
2021/04/09 00:03:59;;;;;;;;;;;8.80;59.80;;;;;;5028843;28;19913;-59
2021/04/09 00:06:24;;;;;;;;;;;8.80;59.80;;;;;;5030005;28;19936;-58
2021/04/09 00:08:50;;;;;;;;;;;8.80;59.90;;;;;;5031529;28;19909;-57
2021/04/09 00:11:15;;;;;;;;;;;8.80;59.90;;;;;;5030421;28;20004;-57
2021/04/09 00:13:41;;;;;;;;;;;8.70;59.80;;;;;;5025512;28;19971;-60
2021/04/09 00:16:06;;;;;;;;;;;8.80;60.00;;;;;;5029483;28;20380;-59
2021/04/09 00:18:32;;;;;;;;;;;8.70;59.90;;;;;;5008773;28;19913;-62
2021/04/09 00:20:57;;;;;;;;;;;8.70;60.00;;;;;;5018542;28;19913;-62
2021/04/09 00:23:22;;;;;;;;;;;8.70;60.00;;;;;;5018747;28;19924;-57
2021/04/09 00:25:48;;;;;;;;;;;8.60;59.90;;;;;;5015198;28;20373;-60
2021/04/09 00:28:13;;;;;;;;;;;8.60;59.90;;;;;;5013896;28;19913;-58
2021/04/09 00:30:39;;;;;;;;;;;8.60;60.10;;;;;;5021603;28;19909;-58
2021/04/09 00:33:04;;;;;;;;;;;8.60;60.10;;;;;;5035224;28;19925;-61
2021/04/09 00:35:30;;;;;;;;;;;8.60;60.10;;;;;;5018687;28;20712;-62
2021/04/09 00:37:55;;;;;;;;;;;8.50;60.40;;;;;;5019430;28;19929;-60
2021/04/09 00:40:21;;;;;;;;;;;8.60;60.20;;;;;;5013814;28;20428;-56
2021/04/09 00:42:46;;;;;;;;;;;8.50;60.30;;;;;;5021739;28;19920;-57
2021/04/09 00:45:13;;;;;;;;;;;8.50;61.10;;;;;;5020902;28;19913;-58
2021/04/09 00:47:39;;;;;;;;;;;8.50;60.30;;;;;;5019793;28;19936;-61
2021/04/09 00:50:05;;;;;;;;;;;8.40;60.40;;;;;;5019985;28;20300;-56
2021/04/09 00:52:31;;;;;;;;;;;8.40;60.40;;;;;;5014925;28;20412;-61
2021/04/09 00:54:57;;;;;;;;;;;8.40;60.50;;;;;;5030510;28;20001;-61
2021/04/09 00:57:22;;;;;;;;;;;8.40;60.60;;;;;;5032475;28;20071;-61
2021/04/09 00:59:48;;;;;;;;;;;8.30;60.60;;;;;;5023604;28;19913;-61
2021/04/09 01:02:13;;;;;;;;;;;8.30;60.60;;;;;;5031888;28;20438;-59
2021/04/09 01:04:39;;;;;;;;;;;8.30;60.70;;;;;;5016557;28;19909;-59
2021/04/09 01:07:04;;;;;;;;;;;8.30;60.90;;;;;;5032112;28;19924;-58
2021/04/09 01:09:30;;;;;;;;;;;8.30;60.80;;;;;;5020399;28;20047;-57
2021/04/09 01:11:55;;;;;;;;;;;8.30;60.90;;;;;;5021129;28;19920;-59
2021/04/09 01:14:20;;;;;;;;;;;8.20;60.80;;;;;;5024506;28;19913;-58
2021/04/09 01:16:51;;;;;;;;;;;8.20;60.80;;;;;;4997308;28;19921;-59
2021/04/09 01:19:24;;;;;;;;;;;8.20;61.00;;;;;;5005178;28;19913;-59
2021/04/09 01:21:51;;;;;;;;;;;8.20;61.00;;;;;;5005498;28;19910;-59
2021/04/09 01:24:25;;;;;;;;;;;8.10;60.90;;;;;;5006617;28;19918;-59
2021/04/09 01:26:51;;;;;;;;;;;8.20;61.20;;;;;;5004759;28;20374;-56
2021/04/09 01:29:37;;;;;;;;;;;8.10;61.10;;;;;;4991380;28;19985;-59
2021/04/09 01:32:04;;;;;;;;;;;8.10;61.30;;;;;;5007664;28;19920;-59
2021/04/09 01:34:30;;;;;;;;;;;8.10;61.30;;;;;;4996372;28;20001;-61
2021/04/09 01:36:56;;;;;;;;;;;8.10;61.40;;;;;;5017054;28;19917;-58
2021/04/09 01:39:23;;;;;;;;;;;8.10;61.40;;;;;;5007321;28;19922;-59
2021/04/09 01:41:52;;;;;;;;;;;8.10;61.30;;;;;;5028429;28;19995;-58
2021/04/09 01:44:17;;;;;;;;;;;8.00;61.30;;;;;;5043325;28;20338;-59
2021/04/09 01:46:43;;;;;;;;;;;8.00;61.20;;;;;;5024621;28;19920;-61
2021/04/09 01:49:08;;;;;;;;;;;8.00;61.30;;;;;;5009533;28;20400;-60
2021/04/09 01:51:34;;;;;;;;;;;8.00;61.40;;;;;;5030342;28;19917;-60
2021/04/09 01:53:59;;;;;;;;;;;8.00;61.40;;;;;;5024136;28;20423;-57
2021/04/09 01:56:25;;;;;;;;;;;7.90;61.60;;;;;;5025060;28;19928;-59
2021/04/09 01:58:50;;;;;;;;;;;7.90;61.60;;;;;;5022370;28;19917;-57
2021/04/09 02:01:16;;;;;;;;;;;7.90;61.60;;;;;;5026126;28;19913;-60
2021/04/09 02:03:41;;;;;;;;;;;7.90;61.60;;;;;;5024490;28;19917;-59
2021/04/09 02:06:07;;;;;;;;;;;7.90;61.70;;;;;;5031928;28;19920;-59
2021/04/09 02:08:32;;;;;;;;;;;7.80;61.70;;;;;;5041106;28;19913;-56
2021/04/09 02:10:58;;;;;;;;;;;7.80;61.70;;;;;;5031925;28;19916;-57
2021/04/09 02:13:24;;;;;;;;;;;7.80;61.80;;;;;;5018614;28;19916;-59
2021/04/09 02:15:51;;;;;;;;;;;7.90;61.80;;;;;;5015133;28;20258;-63
2021/04/09 02:18:17;;;;;;;;;;;7.80;61.70;;;;;;5008722;28;19914;-59
2021/04/09 02:20:42;;;;;;;;;;;7.80;61.90;;;;;;5016621;28;19913;-58
2021/04/09 02:23:08;;;;;;;;;;;7.80;62.00;;;;;;5015270;28;19929;-58
2021/04/09 02:25:33;;;;;;;;;;;7.80;61.90;;;;;;5039278;28;20360;-61
2021/04/09 02:27:58;;;;;;;;;;;7.80;62.00;;;;;;5020836;28;19913;-58
2021/04/09 02:30:24;;;;;;;;;;;7.70;62.00;;;;;;5023635;28;19999;-59
2021/04/09 02:32:50;;;;;;;;;;;7.70;62.00;;;;;;5027084;28;19933;-58
2021/04/09 02:35:15;;;;;;;;;;;7.70;62.00;;;;;;5023205;28;19959;-57
2021/04/09 02:37:42;;;;;;;;;;;7.70;62.20;;;;;;5036282;28;20347;-57
2021/04/09 02:40:14;;;;;;;;;;;7.70;62.20;;;;;;5035474;28;20004;-56
2021/04/09 02:42:40;;;;;;;;;;;7.60;62.20;;;;;;5028361;28;20369;-60
2021/04/09 02:45:07;;;;;;;;;;;7.60;62.20;;;;;;5028627;28;19913;-58
2021/04/09 02:47:32;;;;;;;;;;;7.60;62.20;;;;;;5028136;28;20251;-59
2021/04/09 02:49:59;;;;;;;;;;;7.60;62.30;;;;;;5016826;28;20214;-60
2021/04/09 02:52:34;;;;;;;;;;;7.60;62.30;;;;;;5016526;28;19970;-57
2021/04/09 02:55:01;;;;;;;;;;;7.60;62.30;;;;;;5028357;28;19924;-56
2021/04/09 02:57:26;;;;;;;;;;;7.60;62.40;;;;;;5027938;28;19917;-58
2021/04/09 02:59:52;;;;;;;;;;;7.60;62.60;;;;;;5028759;28;19987;-60
2021/04/09 03:02:17;;;;;;;;;;;7.50;62.40;;;;;;5027541;28;19909;-59
2021/04/09 03:04:43;;;;;;;;;;;7.50;62.40;;;;;;5039258;28;19909;-56
2021/04/09 03:07:11;;;;;;;;;;;7.50;62.40;;;;;;5027467;28;19909;-57
2021/04/09 03:09:37;;;;;;;;;;;7.50;62.50;;;;;;5042425;28;19909;-59
2021/04/09 03:12:10;;;;;;;;;;;7.50;62.50;;;;;;5024688;28;20010;-58
2021/04/09 03:14:36;;;;;;;;;;;7.50;62.60;;;;;;5010965;28;19940;-58
2021/04/09 03:17:02;;;;;;;;;;;7.40;62.60;;;;;;5025061;28;20356;-57
2021/04/09 03:19:28;;;;;;;;;;;7.40;62.70;;;;;;5027376;28;19973;-57
2021/04/09 03:21:53;;;;;;;;;;;7.40;62.70;;;;;;5026114;28;19956;-60
2021/04/09 03:24:18;;;;;;;;;;;7.40;62.70;;;;;;5013303;28;19910;-59
2021/04/09 03:26:44;;;;;;;;;;;7.30;62.70;;;;;;5016905;28;19913;-61
2021/04/09 03:29:09;;;;;;;;;;;7.30;62.80;;;;;;5022234;28;19936;-60
2021/04/09 03:31:35;;;;;;;;;;;7.30;62.70;;;;;;5028208;28;19914;-59
2021/04/09 03:34:00;;;;;;;;;;;7.30;62.80;;;;;;5029718;28;19914;-59
2021/04/09 03:36:26;;;;;;;;;;;7.30;62.80;;;;;;5016167;28;19925;-59
2021/04/09 03:38:51;;;;;;;;;;;7.30;62.90;;;;;;5015577;28;20147;-58
2021/04/09 03:41:17;;;;;;;;;;;7.30;62.90;;;;;;5029671;28;19913;-61
2021/04/09 03:43:42;;;;;;;;;;;7.30;63.00;;;;;;5017154;28;19917;-61
2021/04/09 03:46:07;;;;;;;;;;;7.20;62.90;;;;;;5014761;28;19921;-57
2021/04/09 03:48:35;;;;;;;;;;;7.30;63.20;;;;;;5012774;28;19936;-56
2021/04/09 03:51:01;;;;;;;;;;;7.20;63.00;;;;;;5004082;28;19910;-61
2021/04/09 03:53:26;;;;;;;;;;;7.20;63.10;;;;;;5022313;28;20289;-60
2021/04/09 03:55:51;;;;;;;;;;;7.20;62.90;;;;;;5002455;28;19921;-61
2021/04/09 03:58:17;;;;;;;;;;;7.20;63.20;;;;;;5025224;28;19913;-59
2021/04/09 04:00:42;;;;;;;;;;;7.20;63.20;;;;;;5004486;28;19910;-58
2021/04/09 04:03:08;;;;;;;;;;;7.20;63.10;;;;;;5003823;28;20396;-59
2021/04/09 04:05:33;;;;;;;;;;;7.10;63.30;;;;;;5000935;28;19910;-56
2021/04/09 04:07:59;;;;;;;;;;;7.10;63.30;;;;;;5006575;28;19909;-61
2021/04/09 04:10:24;;;;;;;;;;;7.10;63.30;;;;;;5005190;28;19972;-56
2021/04/09 04:12:50;;;;;;;;;;;7.10;63.30;;;;;;5006797;28;19936;-59
2021/04/09 04:15:15;;;;;;;;;;;7.10;63.40;;;;;;5006279;28;20393;-57
2021/04/09 04:17:41;;;;;;;;;;;7.10;63.40;;;;;;5007733;28;20004;-58
2021/04/09 04:20:07;;;;;;;;;;;7.00;63.40;;;;;;5020243;28;19984;-61
2021/04/09 04:22:32;;;;;;;;;;;7.10;63.40;;;;;;5000932;28;19913;-58
2021/04/09 04:24:57;;;;;;;;;;;7.00;63.50;;;;;;4999948;28;20312;-56
2021/04/09 04:27:23;;;;;;;;;;;7.00;63.50;;;;;;5007163;28;20003;-57
2021/04/09 04:29:48;;;;;;;;;;;7.00;64.10;;;;;;4998165;28;19909;-61
2021/04/09 04:32:14;;;;;;;;;;;7.00;63.60;;;;;;5003660;28;19920;-57
2021/04/09 04:34:39;;;;;;;;;;;7.00;63.70;;;;;;5001779;28;19925;-57
2021/04/09 04:37:05;;;;;;;;;;;7.00;63.70;;;;;;5008025;28;19967;-59
2021/04/09 04:39:30;;;;;;;;;;;7.20;63.80;;;;;;5009712;28;19922;-59
2021/04/09 04:41:56;;;;;;;;;;;6.90;63.70;;;;;;5005074;28;20381;-59
2021/04/09 04:44:21;;;;;;;;;;;6.90;63.80;;;;;;5025167;28;19990;-61
2021/04/09 04:46:46;;;;;;;;;;;6.90;63.60;;;;;;5008822;28;19924;-59
2021/04/09 04:49:12;;;;;;;;;;;6.90;63.90;;;;;;5007757;28;20293;-60
2021/04/09 04:51:37;;;;;;;;;;;6.90;63.80;;;;;;5005906;28;19961;-56
2021/04/09 04:54:03;;;;;;;;;;;6.80;63.90;;;;;;5009073;28;20392;-58
2021/04/09 04:56:28;;;;;;;;;;;6.80;63.90;;;;;;5012713;28;19921;-58
2021/04/09 04:58:54;;;;;;;;;;;6.80;63.90;;;;;;5009002;28;20363;-60
2021/04/09 05:01:19;;;;;;;;;;;6.80;63.90;;;;;;5003902;28;19913;-59
2021/04/09 05:03:45;;;;;;;;;;;6.80;64.00;;;;;;5005140;28;19921;-60
2021/04/09 05:06:10;;;;;;;;;;;6.80;64.00;;;;;;5006690;28;19929;-58
2021/04/09 05:08:36;;;;;;;;;;;6.80;64.00;;;;;;5004456;28;20345;-58
2021/04/09 05:11:01;;;;;;;;;;;6.80;63.90;;;;;;5005518;28;19956;-60
2021/04/09 05:13:27;;;;;;;;;;;6.70;63.90;;;;;;5009179;28;19913;-60
2021/04/09 05:15:52;;;;;;;;;;;6.70;64.00;;;;;;5002551;28;19932;-59
2021/04/09 05:18:18;;;;;;;;;;;6.70;63.90;;;;;;5007016;28;20314;-60
2021/04/09 05:20:43;;;;;;;;;;;6.70;64.10;;;;;;5006344;28;20041;-59
2021/04/09 05:23:08;;;;;;;;;;;6.70;64.10;;;;;;5031891;28;20177;-62
2021/04/09 05:25:34;;;;;;;;;;;6.70;64.30;;;;;;5031514;28;20004;-56
2021/04/09 05:27:59;;;;;;;;;;;6.70;64.40;;;;;;5012902;28;19912;-61
2021/04/09 05:30:25;;;;;;;;;;;6.70;64.20;;;;;;5015254;28;19925;-59
2021/04/09 05:32:50;;;;;;;;;;;6.70;64.10;;;;;;5019423;28;20384;-59
2021/04/09 05:35:16;;;;;;;;;;;6.70;64.20;;;;;;5045796;28;19921;-62
2021/04/09 05:37:42;;;;;;;;;;;6.60;64.20;;;;;;5010960;28;19917;-60
2021/04/09 05:40:07;;;;;;;;;;;6.60;64.10;;;;;;5029648;28;20366;-61
2021/04/09 05:42:33;;;;;;;;;;;6.60;64.20;;;;;;5012582;28;20368;-56
2021/04/09 05:44:58;;;;;;;;;;;6.60;64.20;;;;;;5008561;28;19920;-61
2021/04/09 05:47:25;;;;;;;;;;;6.60;64.40;;;;;;5025174;28;19940;-56
2021/04/09 05:49:51;;;;;;;;;;;6.70;64.40;;;;;;5026670;28;20286;-56
2021/04/09 05:52:16;;;;;;;;;;;6.60;64.20;;;;;;5018859;28;19917;-59
2021/04/09 05:54:42;;;;;;;;;;;6.60;64.50;;;;;;5036883;28;20186;-59
2021/04/09 05:57:08;;;;;;;;;;;6.60;64.30;;;;;;5017688;28;20413;-60
2021/04/09 05:59:33;;;;;;;;;;;6.60;64.50;;;;;;5040763;28;19909;-60
2021/04/09 06:01:59;;;;;;;;;;;6.70;64.70;;;;;;5008153;28;20292;-59
2021/04/09 06:04:24;;;;;;;;;;;6.60;64.50;;;;;;5023186;28;19917;-61
2021/04/09 06:06:50;;;;;;;;;;;6.60;64.50;;;;;;5007304;28;20250;-58
2021/04/09 06:09:15;;;;;;;;;;;6.60;64.70;;;;;;5016768;28;20348;-57
2021/04/09 06:11:41;;;;;;;;;;;6.60;64.50;;;;;;5031038;28;19913;-59
2021/04/09 06:14:06;;;;;;;;;;;6.60;64.50;;;;;;5012007;28;19913;-58
2021/04/09 06:16:31;;;;;;;;;;;6.60;64.70;;;;;;5019225;28;20288;-61
2021/04/09 06:18:57;;;;;;;;;;;6.70;64.60;;;;;;5015694;28;19910;-59
2021/04/09 06:21:22;;;;;;;;;;;6.70;64.70;;;;;;5029588;28;20004;-59
2021/04/09 06:23:48;;;;;;;;;;;6.70;64.70;;;;;;5013134;28;20285;-59
2021/04/09 06:26:13;;;;;;;;;;;6.70;64.50;;;;;;5019028;28;19917;-59
2021/04/09 06:28:39;;;;;;;;;;;6.70;64.50;;;;;;5010629;28;19917;-60
2021/04/09 06:31:05;;;;;;;;;;;6.70;64.50;;;;;;5012857;28;19921;-59
2021/04/09 06:33:30;;;;;;;;;;;6.70;64.60;;;;;;5013576;28;19910;-60
2021/04/09 06:35:56;;;;;;;;;;;6.70;64.40;;;;;;5016892;28;19967;-60
2021/04/09 06:38:21;;;;;;;;;;;6.70;64.30;;;;;;5028316;28;20389;-59
2021/04/09 06:40:47;;;;;;;;;;;6.70;64.40;;;;;;5012289;28;19913;-57
2021/04/09 06:43:12;;;;;;;;;;;6.90;64.50;;;;;;5016070;28;20005;-60
2021/04/09 06:45:39;;;;;;;;;;;6.70;64.40;;;;;;5020032;28;20477;-60
2021/04/09 06:48:05;;;;;;;;;;;6.70;64.40;;;;;;5019947;28;19909;-59
2021/04/09 06:50:30;;;;;;;;;;;6.70;64.40;;;;;;5010774;28;20000;-60
2021/04/09 06:52:56;;;;;;;;;;;6.70;64.50;;;;;;5006251;28;20004;-60
2021/04/09 06:55:23;;;;;;;;;;;6.70;64.40;;;;;;5022667;28;20289;-59
2021/04/09 06:57:49;;;;;;;;;;;6.80;64.50;;;;;;5004378;28;19909;-57
2021/04/09 07:00:16;;;;;;;;;;;6.70;64.30;;;;;;4994542;28;19921;-59
2021/04/09 07:02:42;;;;;;;;;;;6.70;64.30;;;;;;5008415;28;19909;-58
2021/04/09 07:05:08;;;;;;;;;;;6.80;64.40;;;;;;5005694;28;19963;-60
2021/04/09 07:07:33;;;;;;;;;;;6.80;64.50;;;;;;5022849;28;20408;-61
2021/04/09 07:09:58;;;;;;;;;;;6.80;64.80;;;;;;5022672;28;19924;-59
2021/04/09 07:12:27;;;;;;;;;;;6.80;64.90;;;;;;5023510;28;19913;-59
2021/04/09 07:15:00;;;;;;;;;;;6.80;65.00;;;;;;5005827;28;19917;-57
2021/04/09 07:17:29;;;;;;;;;;;6.80;65.10;;;;;;5006642;28;19941;-56
2021/04/09 07:20:11;;;;;;;;;;;6.80;65.20;;;;;;5007265;28;19984;-60
2021/04/09 07:22:36;;;;;;;;;;;6.80;65.20;;;;;;5021957;28;19949;-60
2021/04/09 07:25:12;;;;;;;;;;;6.80;65.20;;;;;;4996343;28;19996;-57
2021/04/09 07:27:38;;;;;;;;;;;6.80;65.20;;;;;;5031613;28;20423;-61
2021/04/09 07:30:04;;;;;;;;;;;6.80;65.20;;;;;;5012751;28;20052;-60
2021/04/09 07:32:31;;;;;;;;;;;6.80;65.20;;;;;;5001066;28;19941;-59
2021/04/09 07:35:00;;;;;;;;;;;6.90;65.30;;;;;;5008637;28;19916;-58
2021/04/09 07:37:26;;;;;;;;;;;6.90;65.40;;;;;;5022734;28;19909;-61
2021/04/09 07:39:55;;;;;;;;;;;6.90;65.30;;;;;;5026190;28;20426;-58
2021/04/09 07:42:27;;;;;;;;;;;6.90;65.40;;;;;;5011404;28;19909;-56
2021/04/09 07:44:56;;;;;;;;;;;6.90;65.40;;;;;;5023045;28;19991;-60
2021/04/09 07:47:25;;;;;;;;;;;6.90;65.50;;;;;;5022692;28;20208;-60
2021/04/09 07:49:57;;;;;;;;;;;6.90;65.40;;;;;;5017353;28;19913;-59
2021/04/09 07:52:23;;;;;;;;;;;6.90;65.30;;;;;;5019722;28;19917;-62
2021/04/09 07:54:48;;;;;;;;;;;7.00;65.40;;;;;;5027112;28;20419;-59
2021/04/09 07:57:26;;;;;;;;;;;7.00;65.40;;;;;;5029269;28;19913;-59
2021/04/09 07:59:51;;;;;;;;;;;7.00;65.40;;;;;;5024128;28;19913;-59
2021/04/09 08:02:17;;;;;;;;;;;7.00;65.40;;;;;;5018045;28;19918;-60
2021/04/09 08:04:42;;;;;;;;;;;7.00;65.40;;;;;;5027709;28;19910;-58
2021/04/09 08:07:17;;;;;;;;;;;7.00;65.50;;;;;;5012580;28;19973;-58
2021/04/09 08:09:46;;;;;;;;;;;7.00;65.50;;;;;;5025387;28;19916;-59
2021/04/09 08:12:24;;;;;;;;;;;7.00;65.60;;;;;;5024377;28;20296;-59
2021/04/09 08:14:49;;;;;;;;;;;7.10;65.70;;;;;;5007563;28;19921;-61
2021/04/09 08:17:14;;;;;;;;;;;7.10;65.90;;;;;;5044797;28;20330;-60
2021/04/09 08:19:40;;;;;;;;;;;7.20;65.80;;;;;;5010156;28;19949;-59
2021/04/09 08:22:06;;;;;;;;;;;7.20;65.60;;;;;;5022587;28;19917;-60
2021/04/09 08:24:32;;;;;;;;;;;7.20;65.60;;;;;;5036320;28;19917;-60
2021/04/09 08:26:57;;;;;;;;;;;7.20;65.40;;;;;;5031245;28;19996;-58
2021/04/09 08:29:23;;;;;;;;;;;7.20;65.50;;;;;;5014165;28;19996;-63
2021/04/09 08:31:49;;;;;;;;;;;7.30;65.40;;;;;;5029301;28;19913;-58
2021/04/09 08:34:16;;;;;;;;;;;7.30;65.50;;;;;;5019282;28;19920;-60
2021/04/09 08:36:43;;;;;;;;;;;7.30;65.30;;;;;;5020190;28;19913;-60
2021/04/09 08:39:09;;;;;;;;;;;7.30;65.60;;;;;;5025247;28;19965;-60
2021/04/09 08:41:37;;;;;;;;;;;7.30;65.50;;;;;;5020284;28;19909;-60
2021/04/09 08:44:03;;;;;;;;;;;7.40;65.30;;;;;;5028952;28;20269;-59
2021/04/09 08:46:28;;;;;;;;;;;7.40;65.30;;;;;;5037735;28;19917;-58
2021/04/09 08:48:56;;;;;;;;;;;7.40;65.10;;;;;;5024461;28;21377;-59
2021/04/09 08:51:22;;;;;;;;;;;7.50;65.20;;;;;;5020048;28;19928;-59
2021/04/09 08:53:47;;;;;;;;;;;7.50;65.00;;;;;;5026305;28;19949;-61
2021/04/09 08:56:13;;;;;;;;;;;7.50;64.80;;;;;;5019961;28;19961;-58
2021/04/09 08:58:45;;;;;;;;;;;7.50;64.80;;;;;;5004786;28;19914;-60
2021/04/09 09:01:11;;;;;;;;;;;7.60;64.70;;;;;;5027031;28;19909;-60
2021/04/09 09:03:37;;;;;;;;;;;7.60;64.50;;;;;;5023957;28;19917;-60
2021/04/09 09:06:06;;;;;;;;;;;7.60;64.40;;;;;;5043378;28;19940;-63
2021/04/09 09:08:40;;;;;;;;;;;7.60;64.30;;;;;;5039302;28;19924;-59
2021/04/09 09:11:06;;;;;;;;;;;7.70;64.30;;;;;;5041595;28;20250;-60
2021/04/09 09:13:31;;;;;;;;;;;7.70;64.10;;;;;;5026174;28;19916;-57
2021/04/09 09:15:57;;;;;;;;;;;7.70;64.10;;;;;;5043127;28;19939;-60
2021/04/09 09:18:23;;;;;;;;;;;7.70;64.00;;;;;;5027366;28;19955;-62
2021/04/09 09:21:01;;;;;;;;;;;7.80;64.00;;;;;;5028010;28;20381;-62
2021/04/09 09:23:39;;;;;;;;;;;7.80;63.90;;;;;;5012134;28;19996;-60
2021/04/09 09:26:20;;;;;;;;;;;7.80;63.80;;;;;;5027007;28;19909;-62
2021/04/09 09:28:46;;;;;;;;;;;7.90;63.70;;;;;;5000018;28;19967;-61
2021/04/09 09:31:30;;;;;;;;;;;7.90;63.60;;;;;;5019183;28;19909;-59
2021/04/09 09:34:15;;;;;;;;;;;7.90;63.40;;;;;;5025427;28;19914;-58
2021/04/09 09:36:59;;;;;;;;;;;8.00;63.30;;;;;;5002015;28;19921;-61
2021/04/09 09:39:31;;;;;;;;;;;8.00;63.20;;;;;;5009016;28;19928;-61
2021/04/09 09:41:56;;;;;;;;;;;7.90;63.10;;;;;;5038484;28;19964;-58
2021/04/09 09:44:28;;;;;;;;;;;8.10;63.10;;;;;;5009848;28;19955;-58
2021/04/09 09:46:58;;;;;;;;;;;8.20;63.00;;;;;;5005480;28;19971;-58
2021/04/09 09:49:26;;;;;;;;;;;8.20;63.00;;;;;;5038694;28;19922;-60
2021/04/09 09:51:52;;;;;;;;;;;8.20;62.80;;;;;;5015129;28;19910;-59
2021/04/09 09:54:33;;;;;;;;;;;8.20;62.70;;;;;;5045639;28;20387;-60
2021/04/09 09:56:59;;;;;;;;;;;8.30;62.70;;;;;;5003043;28;20402;-60
2021/04/09 09:59:26;;;;;;;;;;;8.30;62.70;;;;;;5035886;28;20473;-62
2021/04/09 10:01:52;;;;;;;;;;;8.40;62.60;;;;;;5019133;28;19913;-58
2021/04/09 10:04:18;;;;;;;;;;;8.40;62.60;;;;;;5037570;28;19913;-59
2021/04/09 10:06:49;;;;;;;;;;;8.50;62.50;;;;;;5023144;28;19936;-61
2021/04/09 10:09:21;;;;;;;;;;;8.50;62.20;;;;;;5016919;28;19913;-58
2021/04/09 10:11:47;;;;;;;;;;;8.50;62.00;;;;;;5007135;28;19936;-61
2021/04/09 10:14:12;;;;;;;;;;;8.60;61.80;;;;;;5013861;28;20357;-60
2021/04/09 10:16:38;;;;;;;;;;;8.40;61.30;;;;;;5014265;28;19992;-60
2021/04/09 10:19:06;;;;;;;;;;;8.70;61.40;;;;;;5026997;28;19914;-60
2021/04/09 10:21:41;;;;;;;;;;;8.80;61.20;;;;;;5020390;28;19967;-60
2021/04/09 10:24:07;;;;;;;;;;;8.80;61.10;;;;;;5010362;28;19925;-58
2021/04/09 10:26:33;;;;;;;;;;;8.90;61.10;;;;;;5016966;28;19913;-62
2021/04/09 10:28:58;;;;;;;;;;;8.90;60.90;;;;;;5012668;28;20262;-61
2021/04/09 10:31:24;;;;;;;;;;;9.00;60.70;;;;;;5023819;28;20162;-61
2021/04/09 10:33:50;;;;;;;;;;;9.10;60.30;;;;;;5022999;28;19917;-60
2021/04/09 10:36:25;;;;;;;;;;;9.10;60.10;;;;;;5021139;28;19917;-62
2021/04/09 10:39:00;;;;;;;;;;;9.20;59.50;;;;;;5009821;28;19922;-59
2021/04/09 10:41:30;;;;;;;;;;;9.20;59.40;;;;;;5027801;28;19921;-59
2021/04/09 10:44:01;;;;;;;;;;;9.30;59.10;;;;;;5010671;28;19936;-58
2021/04/09 10:46:30;;;;;;;;;;;9.30;59.40;;;;;;5006074;28;19913;-58
2021/04/09 10:49:15;;;;;;;;;;;9.40;59.20;;;;;;5023534;28;20074;-57
2021/04/09 10:51:45;;;;;;;;;;;9.40;59.20;;;;;;5026768;28;19972;-60
2021/04/09 10:54:14;;;;;;;;;;;9.50;58.90;;;;;;5003957;28;20008;-57
2021/04/09 10:56:40;;;;;;;;;;;9.50;58.90;;;;;;5012290;28;19913;-58
2021/04/09 10:59:08;;;;;;;;;;;9.50;58.80;;;;;;5014704;28;19936;-58
2021/04/09 11:01:34;;;;;;;;;;;9.60;59.10;;;;;;5044433;28;19948;-62
2021/04/09 11:04:00;;;;;;;;;;;9.60;59.10;;;;;;5007194;28;19949;-60
2021/04/09 11:06:25;;;;;;;;;;;9.70;59.00;;;;;;5044847;28;20015;-60
2021/04/09 11:08:55;;;;;;;;;;;9.70;58.90;;;;;;5026369;28;19992;-59
2021/04/09 11:11:20;;;;;;;;;;;9.80;59.00;;;;;;5024213;28;19917;-62
2021/04/09 11:13:46;;;;;;;;;;;9.80;58.90;;;;;;5009041;28;19928;-59
2021/04/09 11:16:11;;;;;;;;;;;9.90;59.00;;;;;;5013639;28;19917;-57
2021/04/09 11:18:50;;;;;;;;;;;10.00;59.00;;;;;;5015785;28;19918;-62
2021/04/09 11:21:15;;;;;;;;;;;10.00;59.00;;;;;;5044104;28;20147;-57
2021/04/09 11:23:41;;;;;;;;;;;10.10;58.40;;;;;;5018890;28;19920;-58
2021/04/09 11:26:16;;;;;;;;;;;10.20;58.20;;;;;;5017939;28;19909;-61
2021/04/09 11:28:42;;;;;;;;;;;10.30;57.50;;;;;;5022671;28;20121;-61
2021/04/09 11:31:10;;;;;;;;;;;10.30;57.00;;;;;;5022493;28;20202;-59
2021/04/09 11:33:36;;;;;;;;;;;10.40;56.60;;;;;;5005052;28;19910;-59
2021/04/09 11:36:14;;;;;;;;;;;10.50;56.20;;;;;;5034800;28;20376;-61
2021/04/09 11:38:40;;;;;;;;;;;10.60;55.80;;;;;;5013624;28;20307;-60
2021/04/09 11:41:08;;;;;;;;;;;10.70;55.70;;;;;;5013124;28;20141;-62
2021/04/09 11:43:34;;;;;;;;;;;10.70;55.70;;;;;;5032768;28;20264;-62
2021/04/09 11:45:59;;;;;;;;;;;10.80;55.90;;;;;;5036115;28;19909;-59
2021/04/09 11:48:28;;;;;;;;;;;10.90;55.70;;;;;;5015625;28;20001;-59
2021/04/09 11:50:54;;;;;;;;;;;11.00;55.90;;;;;;5016213;28;20061;-58
2021/04/09 11:53:20;;;;;;;;;;;11.00;54.80;;;;;;5019427;28;20315;-59
2021/04/09 11:55:47;;;;;;;;;;;11.10;53.90;;;;;;5021352;28;19925;-61
2021/04/09 11:58:23;;;;;;;;;;;11.30;52.80;;;;;;5033711;28;19917;-57
2021/04/09 12:00:54;;;;;;;;;;;11.40;52.10;;;;;;5019085;28;19956;-60
2021/04/09 12:03:19;;;;;;;;;;;11.50;52.10;;;;;;5017474;28;19922;-61
2021/04/09 12:05:45;;;;;;;;;;;11.70;51.60;;;;;;5014998;28;20010;-60
2021/04/09 12:08:10;;;;;;;;;;;11.80;51.30;;;;;;5001220;28;19940;-62
2021/04/09 12:10:36;;;;;;;;;;;11.90;51.50;;;;;;5007887;28;20372;-60
2021/04/09 12:13:03;;;;;;;;;;;12.00;51.60;;;;;;5020862;28;19991;-60
2021/04/09 12:15:29;;;;;;;;;;;12.00;51.40;;;;;;5033584;28;19940;-60
2021/04/09 12:17:54;;;;;;;;;;;12.00;51.20;;;;;;5010754;28;19944;-59
2021/04/09 12:20:20;;;;;;;;;;;12.10;51.30;;;;;;5026992;28;20416;-61
2021/04/09 12:22:46;;;;;;;;;;;12.20;51.50;;;;;;5018030;28;20132;-57
2021/04/09 12:25:12;;;;;;;;;;;12.30;51.20;;;;;;5017439;28;20036;-62
2021/04/09 12:27:37;;;;;;;;;;;12.40;50.90;;;;;;5018167;28;20326;-62
2021/04/09 12:30:03;;;;;;;;;;;12.50;50.80;;;;;;5019850;28;19910;-63
2021/04/09 12:32:29;;;;;;;;;;;12.60;50.90;;;;;;5017502;28;19928;-59
2021/04/09 12:34:54;;;;;;;;;;;12.70;50.30;;;;;;5015030;28;19917;-58
2021/04/09 12:37:20;;;;;;;;;;;12.80;50.50;;;;;;5029823;28;19932;-57
2021/04/09 12:39:45;;;;;;;;;;;13.00;50.20;;;;;;5022840;28;19913;-62
2021/04/09 12:42:11;;;;;;;;;;;12.90;50.20;;;;;;5000037;28;19996;-61
2021/04/09 12:44:36;;;;;;;;;;;13.00;50.00;;;;;;5011721;28;19925;-59
2021/04/09 12:47:02;;;;;;;;;;;13.00;50.00;;;;;;5013555;28;20476;-55
2021/04/09 12:49:27;;;;;;;;;;;13.10;50.30;;;;;;5021729;28;19924;-55
2021/04/09 12:51:53;;;;;;;;;;;13.10;50.00;;;;;;5011187;28;19921;-59
2021/04/09 12:54:18;;;;;;;;;;;13.20;50.20;;;;;;5012921;28;20368;-58
2021/04/09 12:56:43;;;;;;;;;;;13.30;49.90;;;;;;5027778;28;19948;-56
2021/04/09 12:59:09;;;;;;;;;;;13.30;50.00;;;;;;5016986;28;19925;-58
2021/04/09 13:01:34;;;;;;;;;;;13.40;49.60;;;;;;5010810;28;19922;-58
2021/04/09 13:04:00;;;;;;;;;;;13.40;49.50;;;;;;5010559;28;19936;-56
2021/04/09 13:06:25;;;;;;;;;;;13.50;49.30;;;;;;5011513;28;19917;-56
2021/04/09 13:08:51;;;;;;;;;;;13.60;49.30;;;;;;5000868;28;19914;-58
2021/04/09 13:11:16;;;;;;;;;;;13.60;49.10;;;;;;5001070;28;19929;-58
2021/04/09 13:13:42;;;;;;;;;;;13.70;48.90;;;;;;5009462;28;20274;-57
2021/04/09 13:16:07;;;;;;;;;;;13.80;49.10;;;;;;5018875;28;19921;-60
2021/04/09 13:18:33;;;;;;;;;;;13.90;48.60;;;;;;5011214;28;19963;-58
2021/04/09 13:20:58;;;;;;;;;;;13.90;47.90;;;;;;5030346;28;19914;-57
2021/04/09 13:23:24;;;;;;;;;;;14.00;48.20;;;;;;5032299;28;19924;-61
2021/04/09 13:25:50;;;;;;;;;;;14.10;47.80;;;;;;5023391;28;19920;-57
2021/04/09 13:28:15;;;;;;;;;;;14.20;48.40;;;;;;5024214;28;20417;-62
2021/04/09 13:30:41;;;;;;;;;;;14.30;49.20;;;;;;5000236;28;20040;-61
2021/04/09 13:33:07;;;;;;;;;;;14.30;49.30;;;;;;5000855;28;20372;-63
2021/04/09 13:35:33;;;;;;;;;;;14.30;49.20;;;;;;4996794;28;19959;-61
2021/04/09 13:37:59;;;;;;;;;;;14.40;49.30;;;;;;5023567;28;19926;-58
2021/04/09 13:40:24;;;;;;;;;;;14.40;48.80;;;;;;5015248;28;20012;-62
2021/04/09 13:42:49;;;;;;;;;;;14.40;48.80;;;;;;5002825;28;20001;-58
2021/04/09 13:45:15;;;;;;;;;;;14.50;48.70;;;;;;5001142;28;19924;-61
2021/04/09 13:47:40;;;;;;;;;;;14.50;47.70;;;;;;5000639;28;19913;-61
2021/04/09 13:50:06;;;;;;;;;;;14.60;47.40;;;;;;5001573;28;19949;-59
2021/04/09 13:52:32;;;;;;;;;;;14.60;46.90;;;;;;5019110;28;19914;-60
2021/04/09 13:54:57;;;;;;;;;;;14.70;47.40;;;;;;5000814;28;19921;-58
2021/04/09 13:57:23;;;;;;;;;;;14.70;47.60;;;;;;5031297;28;19975;-57
2021/04/09 13:59:48;;;;;;;;;;;14.80;47.50;;;;;;5003937;28;20288;-61
2021/04/09 14:02:14;;;;;;;;;;;14.90;48.10;;;;;;5012981;28;19921;-62
2021/04/09 14:04:42;;;;;;;;;;;14.90;48.20;;;;;;5016085;28;20000;-57
2021/04/09 14:07:10;;;;;;;;;;;15.00;48.60;;;;;;5000828;28;20270;-60
2021/04/09 14:09:35;;;;;;;;;;;15.00;48.60;;;;;;5008453;28;20003;-60
2021/04/09 14:12:01;;;;;;;;;;;15.10;48.20;;;;;;5003787;28;19922;-58
2021/04/09 14:14:26;;;;;;;;;;;15.20;47.00;;;;;;5022362;28;19917;-60
2021/04/09 14:16:52;;;;;;;;;;;15.20;46.40;;;;;;5009786;28;19924;-59
2021/04/09 14:19:17;;;;;;;;;;;15.30;46.20;;;;;;5010579;28;19933;-60
2021/04/09 14:21:42;;;;;;;;;;;15.40;46.30;;;;;;5019920;28;19917;-57
2021/04/09 14:24:08;;;;;;;;;;;15.50;46.50;;;;;;4998572;28;19914;-60